createdAt,value
2023-01-30T00:00:19.505Z,15.68
2023-01-30T00:10:25.968Z,15.05
2023-01-30T00:20:29.199Z,15.13
2023-01-30T00:30:33.250Z,12.55
2023-01-30T00:40:35.871Z,13.73
2023-01-30T00:50:45.826Z,12.48
2023-01-30T01:00:48.689Z,12.90
2023-01-30T01:10:52.756Z,12.73
2023-01-30T01:20:55.394Z,14.25
2023-01-30T01:30:59.512Z,12.13
2023-01-30T01:41:06.196Z,12.05
2023-01-30T01:51:16.604Z,10.77
2023-01-30T02:01:19.285Z,11.73
2023-01-30T02:11:30.508Z,9.27
2023-01-30T02:22:13.288Z,8.88
2023-01-30T02:32:25.894Z,5.90
2023-01-30T02:42:35.512Z,3.38
2023-01-30T02:52:40.672Z,3.03
2023-01-30T03:03:07.459Z,3.65
2023-01-30T03:13:18.532Z,3.50
2023-01-30T03:23:21.329Z,4.53
2023-01-30T03:33:25.298Z,3.45
2023-01-30T03:43:27.968Z,3.72
2023-01-30T03:53:31.956Z,3.47
2023-01-30T04:03:35.485Z,3.25
2023-01-30T04:13:39.429Z,4.10
2023-01-30T04:23:42.621Z,3.45
2023-01-30T04:33:46.621Z,2.80
2023-01-30T04:43:49.296Z,2.13
2023-01-30T04:53:53.374Z,3.05
2023-01-30T05:03:56.395Z,2.20
2023-01-30T05:14:00.743Z,2.60
2023-01-30T05:24:03.372Z,3.83
2023-01-30T05:34:07.341Z,3.10
2023-01-30T05:44:11.711Z,2.53
2023-01-30T05:54:16.630Z,3.58
2023-01-30T06:04:19.258Z,2.47
2023-01-30T06:14:23.249Z,2.60
2023-01-30T06:24:25.853Z,2.70
2023-01-30T06:34:29.839Z,2.90
2023-01-30T06:44:32.470Z,2.70
2023-01-30T06:54:36.484Z,2.58
2023-01-30T07:04:39.072Z,2.38
2023-01-30T07:14:43.078Z,3.40
2023-01-30T07:24:45.811Z,2.33
2023-01-30T07:34:49.812Z,2.53
2023-01-30T07:44:52.422Z,3.13
2023-01-30T07:54:56.500Z,2.17
2023-01-30T08:04:59.164Z,3.08
2023-01-30T08:15:03.227Z,3.17
2023-01-30T08:25:06.788Z,3.50
2023-01-30T08:35:11.617Z,3.03
2023-01-30T08:45:14.393Z,2.13
2023-01-30T08:55:19.001Z,1.92
2023-01-30T09:05:21.611Z,2.72
2023-01-30T09:15:25.585Z,2.20
2023-01-30T09:25:28.348Z,3.33
2023-01-30T09:35:32.510Z,3.13
2023-01-30T09:45:46.620Z,2.10
2023-01-30T09:55:51.168Z,2.83
2023-01-30T10:05:56.819Z,3.03
2023-01-30T10:16:07.178Z,2.83
2023-01-30T10:26:12.727Z,2.95
2023-01-30T10:36:23.698Z,2.72
2023-01-30T10:46:40.537Z,2.50
2023-01-30T10:56:51.845Z,3.70
2023-01-30T11:06:56.696Z,3.28
2023-01-30T11:17:02.500Z,2.95
2023-01-30T11:27:11.442Z,2.38
2023-01-30T11:37:24.556Z,2.00
2023-01-30T11:47:29.680Z,2.65
2023-01-30T11:57:41.262Z,1.40
2023-01-30T12:07:46.492Z,1.80
2023-01-30T12:17:58.357Z,2.15
2023-01-30T12:28:05.496Z,3.30
2023-01-30T12:38:23.077Z,3.05
2023-01-30T12:49:13.733Z,1.88
2023-01-30T13:09:40.243Z,2.67
2023-01-30T13:19:49.908Z,2.90
2023-01-30T13:29:54.030Z,3.90
2023-01-30T13:40:00.498Z,3.63
2023-01-30T13:50:24.446Z,2.67
2023-01-30T14:00:32.110Z,4.32
2023-01-30T14:10:35.833Z,2.95
2023-01-30T14:20:45.312Z,4.50
2023-01-30T14:30:49.405Z,2.77
2023-01-30T14:41:27.156Z,2.95
2023-01-30T14:51:35.813Z,3.45
2023-01-30T15:02:05.991Z,2.42
2023-01-30T15:12:27.534Z,2.00
2023-01-30T15:22:40.506Z,1.70
2023-01-30T15:32:45.488Z,2.38
2023-01-30T15:42:50.957Z,2.95
2023-01-30T15:52:56.467Z,3.70
2023-01-30T16:03:01.752Z,3.88
2023-01-30T16:13:05.792Z,2.28
2023-01-30T16:23:21.415Z,2.42
2023-01-30T16:33:25.673Z,1.98
2023-01-30T16:43:29.944Z,1.90
2023-01-30T16:53:34.715Z,3.03
2023-01-30T17:03:39.351Z,2.17
2023-01-30T17:13:43.869Z,2.78
2023-01-30T17:23:49.847Z,2.90
2023-01-30T17:33:54.113Z,2.50
2023-01-30T17:43:56.914Z,3.22
2023-01-30T17:54:00.954Z,2.80
2023-01-30T18:04:03.696Z,3.22
2023-01-30T18:14:07.690Z,3.13
2023-01-30T18:24:10.488Z,3.25
2023-01-30T18:34:14.563Z,2.65
2023-01-30T18:44:17.240Z,3.55
2023-01-30T18:54:21.220Z,2.42
2023-01-30T19:04:23.880Z,2.70
2023-01-30T19:14:27.978Z,1.95
2023-01-30T19:24:30.618Z,1.90
2023-01-30T19:34:34.574Z,1.98
2023-01-30T19:44:37.674Z,1.38
2023-01-30T19:54:41.754Z,2.28
2023-01-30T20:04:44.406Z,1.40
2023-01-30T20:14:48.400Z,2.17
2023-01-30T20:24:51.088Z,1.58
2023-01-30T20:34:55.083Z,3.92
2023-01-30T20:44:57.783Z,2.75
2023-01-30T20:55:01.846Z,1.65
2023-01-30T21:05:06.113Z,1.60
2023-01-30T21:15:10.697Z,1.90
2023-01-30T21:25:13.378Z,2.28
2023-01-30T21:35:18.217Z,2.70
2023-01-30T21:45:21.822Z,2.72
2023-01-30T21:55:26.946Z,2.05
2023-01-30T22:05:36.537Z,3.33
2023-01-30T22:15:40.756Z,2.55
2023-01-30T22:25:45.069Z,1.98
2023-01-30T22:35:51.185Z,1.92
2023-01-30T22:46:00.721Z,2.60
2023-01-30T22:56:06.788Z,2.30
2023-01-30T23:06:11.985Z,2.25
2023-01-30T23:16:17.179Z,2.17
2023-01-30T23:26:19.909Z,2.03
2023-01-30T23:36:24.334Z,2.15
2023-01-30T23:46:28.483Z,2.75
2023-01-30T23:56:35.485Z,1.77
